Time;durP1;ratioP1;P1;durP2;ratioP2;P2;SDS_P1;SDS_P2;PMS_P1;PMS_P2;Temp;Humidity;BMP_temperature;BMP_pressure;BME280_temperature;BME280_humidity;BME280_pressure;Samples;Min_cycle;Max_cycle;Signal;HPM_P1;HPM_P2
2023/06/07 00:02:22;;;;;;;4.90;4.40;;;;;;;;;;4971441;28;20549;-73
2023/06/07 00:05:26;;;;;;;4.87;4.03;;;;;;;;;;4982392;28;20218;-73
2023/06/07 00:08:31;;;;;;;4.83;4.43;;;;;;;;;;4982134;28;20206;-74
2023/06/07 00:11:36;;;;;;;4.57;4.17;;;;;;;;;;4982248;28;20577;-74
2023/06/07 00:14:41;;;;;;;7.27;4.27;;;;;;;;;;4993975;28;20206;-74
2023/06/07 00:17:45;;;;;;;4.50;4.10;;;;;;;;;;4994469;28;20514;-74
2023/06/07 00:20:49;;;;;;;5.40;3.97;;;;;;;;;;4994360;28;20213;-74
2023/06/07 00:23:53;;;;;;;5.60;4.30;;;;;;;;;;4970811;28;20201;-74
2023/06/07 00:26:57;;;;;;;5.97;4.90;;;;;;;;;;4994334;28;20202;-73
2023/06/07 00:30:04;;;;;;;4.53;4.13;;;;;;;;;;4970872;28;20190;-73
2023/06/07 00:33:09;;;;;;;4.67;4.27;;;;;;;;;;4993966;28;20205;-73
2023/06/07 00:36:14;;;;;;;4.60;4.20;;;;;;;;;;4982128;28;20182;-73
2023/06/07 00:39:19;;;;;;;5.37;4.87;;;;;;;;;;4982317;28;20633;-74
2023/06/07 00:42:23;;;;;;;5.43;4.77;;;;;;;;;;4981860;28;20213;-73
2023/06/07 00:45:27;;;;;;;4.70;4.13;;;;;;;;;;4959458;28;20210;-74
2023/06/07 00:48:32;;;;;;;5.30;4.80;;;;;;;;;;4981865;28;20550;-74
2023/06/07 00:51:36;;;;;;;4.63;4.17;;;;;;;;;;4981731;28;20217;-73
2023/06/07 00:54:40;;;;;;;5.30;4.80;;;;;;;;;;4970780;28;20534;-74
2023/06/07 00:57:45;;;;;;;5.53;5.03;;;;;;;;;;4981655;28;20182;-74
2023/06/07 01:00:49;;;;;;;4.80;4.30;;;;;;;;;;4981758;28;20222;-74
2023/06/07 01:03:54;;;;;;;6.47;4.90;;;;;;;;;;4981802;28;20186;-74
2023/06/07 01:07:01;;;;;;;6.10;4.70;;;;;;;;;;4981460;28;20214;-74
2023/06/07 01:10:06;;;;;;;4.87;4.37;;;;;;;;;;4994196;28;20198;-73
2023/06/07 01:13:13;;;;;;;4.80;4.20;;;;;;;;;;4985360;28;20515;-73
2023/06/07 01:16:17;;;;;;;6.10;4.43;;;;;;;;;;4974073;28;20637;-74
2023/06/07 01:19:23;;;;;;;4.70;4.30;;;;;;;;;;4973835;28;20178;-74
2023/06/07 01:22:29;;;;;;;4.90;4.50;;;;;;;;;;4985091;28;20214;-73
2023/06/07 01:25:33;;;;;;;6.10;5.00;;;;;;;;;;4984846;28;20198;-73
2023/06/07 01:28:41;;;;;;;5.10;4.57;;;;;;;;;;4997009;28;20186;-74
2023/06/07 01:31:48;;;;;;;6.33;4.70;;;;;;;;;;4984592;28;20332;-74
2023/06/07 01:34:53;;;;;;;6.40;5.07;;;;;;;;;;4997372;28;20510;-74
2023/06/07 01:37:58;;;;;;;4.60;4.20;;;;;;;;;;4984821;28;20183;-73
2023/06/07 01:41:02;;;;;;;7.53;5.10;;;;;;;;;;4973470;28;20213;-73
2023/06/07 01:44:08;;;;;;;5.07;4.57;;;;;;;;;;4996724;28;20182;-73
2023/06/07 01:47:14;;;;;;;7.50;4.67;;;;;;;;;;4984661;28;20221;-74
2023/06/07 01:50:22;;;;;;;5.73;4.83;;;;;;;;;;4984596;28;20202;-74
2023/06/07 01:53:29;;;;;;;5.07;4.57;;;;;;;;;;4984322;28;20194;-74
2023/06/07 01:56:33;;;;;;;5.30;4.80;;;;;;;;;;4996680;28;20198;-74
2023/06/07 02:00:09;;;;;;;4.90;4.40;;;;;;;;;;4973237;28;20186;-73
2023/06/07 02:03:33;;;;;;;5.63;5.13;;;;;;;;;;4973202;28;20182;-73
2023/06/07 02:06:43;;;;;;;5.50;5.00;;;;;;;;;;4973224;28;20226;-74
2023/06/07 02:09:48;;;;;;;5.30;4.83;;;;;;;;;;4973293;28;20182;-73
2023/06/07 02:12:54;;;;;;;8.23;5.60;;;;;;;;;;4996457;28;20187;-74
2023/06/07 02:15:58;;;;;;;5.27;4.77;;;;;;;;;;4995779;28;20194;-73
2023/06/07 02:19:06;;;;;;;8.87;4.93;;;;;;;;;;4984066;28;20202;-74
2023/06/07 02:22:12;;;;;;;5.43;4.87;;;;;;;;;;4982712;28;20218;-73
2023/06/07 02:25:16;;;;;;;5.63;5.03;;;;;;;;;;4973503;28;20186;-74
2023/06/07 02:28:20;;;;;;;6.03;4.50;;;;;;;;;;4983984;28;20170;-73
2023/06/07 02:31:25;;;;;;;5.70;5.10;;;;;;;;;;4972491;28;20222;-73
2023/06/07 02:34:29;;;;;;;6.23;5.63;;;;;;;;;;4984103;28;20182;-74
2023/06/07 02:37:35;;;;;;;7.27;5.40;;;;;;;;;;4995753;28;20630;-73
2023/06/07 02:40:39;;;;;;;6.03;5.43;;;;;;;;;;4995759;28;20186;-72
2023/06/07 02:43:44;;;;;;;6.43;5.77;;;;;;;;;;4972746;28;20676;-73
2023/06/07 02:46:49;;;;;;;6.23;5.63;;;;;;;;;;4972483;28;20206;-73
2023/06/07 02:49:53;;;;;;;5.47;4.97;;;;;;;;;;4972442;28;20178;-73
2023/06/07 02:52:57;;;;;;;5.80;5.30;;;;;;;;;;4983409;28;20202;-73
2023/06/07 02:56:02;;;;;;;6.00;5.50;;;;;;;;;;4972021;28;20198;-73
2023/06/07 02:59:05;;;;;;;6.30;5.70;;;;;;;;;;4972147;28;20183;-73
2023/06/07 03:02:14;;;;;;;7.50;5.50;;;;;;;;;;4982891;28;20697;-73
2023/06/07 03:05:22;;;;;;;6.47;5.87;;;;;;;;;;4982954;28;20182;-73
2023/06/07 03:08:30;;;;;;;5.97;5.37;;;;;;;;;;4971796;28;20178;-73
2023/06/07 03:11:34;;;;;;;5.87;5.27;;;;;;;;;;4982905;28;20210;-73
2023/06/07 03:14:41;;;;;;;7.07;5.90;;;;;;;;;;4971658;28;20551;-73
2023/06/07 03:17:48;;;;;;;6.10;5.57;;;;;;;;;;4972033;28;20183;-73
2023/06/07 03:20:53;;;;;;;6.20;5.60;;;;;;;;;;4983340;28;20213;-73
2023/06/07 03:23:57;;;;;;;6.60;5.73;;;;;;;;;;4971518;28;20178;-73
2023/06/07 03:27:05;;;;;;;6.10;5.50;;;;;;;;;;4982814;28;20209;-73
2023/06/07 03:30:11;;;;;;;6.70;5.80;;;;;;;;;;4982824;28;20175;-73
2023/06/07 03:33:19;;;;;;;8.93;5.53;;;;;;;;;;4982231;28;20205;-73
2023/06/07 03:36:28;;;;;;;6.30;5.70;;;;;;;;;;4982871;28;20174;-73
2023/06/07 03:39:34;;;;;;;7.57;5.90;;;;;;;;;;4982740;28;20178;-74
2023/06/07 03:42:39;;;;;;;6.50;5.90;;;;;;;;;;4983254;28;20680;-73
2023/06/07 03:45:43;;;;;;;7.03;5.80;;;;;;;;;;4982588;28;20182;-73
2023/06/07 03:48:51;;;;;;;9.27;6.37;;;;;;;;;;4982785;28;20179;-73
2023/06/07 03:51:55;;;;;;;6.37;5.67;;;;;;;;;;4982332;28;20225;-73
2023/06/07 03:54:59;;;;;;;6.70;6.10;;;;;;;;;;4982194;28;20179;-73
2023/06/07 03:58:05;;;;;;;6.30;5.70;;;;;;;;;;4971539;28;20174;-73
2023/06/07 04:01:13;;;;;;;6.50;5.43;;;;;;;;;;4982551;28;20221;-73
2023/06/07 04:04:17;;;;;;;7.77;6.00;;;;;;;;;;4994085;28;20202;-74
2023/06/07 04:07:23;;;;;;;6.67;5.97;;;;;;;;;;4961319;28;20206;-73
2023/06/07 04:10:27;;;;;;;6.60;6.00;;;;;;;;;;4971711;28;20178;-73
2023/06/07 04:13:31;;;;;;;6.17;5.57;;;;;;;;;;4982517;28;20182;-73
2023/06/07 04:16:35;;;;;;;8.20;6.47;;;;;;;;;;4971253;28;20174;-73
2023/06/07 04:19:40;;;;;;;6.90;6.20;;;;;;;;;;4982345;28;20519;-74
2023/06/07 04:22:45;;;;;;;7.23;6.53;;;;;;;;;;4982416;28;20222;-73
2023/06/07 04:25:49;;;;;;;7.50;6.80;;;;;;;;;;4975020;28;20661;-72
2023/06/07 04:28:56;;;;;;;7.80;6.60;;;;;;;;;;4985574;28;20558;-72
2023/06/07 04:32:03;;;;;;;7.77;6.93;;;;;;;;;;4985616;28;20229;-73
2023/06/07 04:35:09;;;;;;;8.10;7.30;;;;;;;;;;4960353;28;20202;-73
2023/06/07 04:38:15;;;;;;;7.30;6.60;;;;;;;;;;4962965;28;20194;-71
2023/06/07 04:41:25;;;;;;;10.20;6.97;;;;;;;;;;4974198;28;20575;-72
2023/06/07 04:44:30;;;;;;;8.17;6.87;;;;;;;;;;4985349;28;20670;-72
2023/06/07 04:47:45;;;;;;;7.27;6.57;;;;;;;;;;4988999;28;20210;-72
2023/06/07 04:50:51;;;;;;;7.93;7.13;;;;;;;;;;4989311;28;20217;-72
2023/06/07 04:53:58;;;;;;;7.50;6.80;;;;;;;;;;4977669;28;20186;-72
2023/06/07 04:57:08;;;;;;;7.57;6.87;;;;;;;;;;4967429;28;20178;-72
2023/06/07 05:00:14;;;;;;;7.77;7.07;;;;;;;;;;4988926;28;20634;-72
2023/06/07 05:03:24;;;;;;;7.30;6.43;;;;;;;;;;4988486;28;20645;-73
2023/06/07 05:06:36;;;;;;;7.53;6.70;;;;;;;;;;4977215;28;20202;-71
2023/06/07 05:09:41;;;;;;;7.10;6.40;;;;;;;;;;4958014;28;20191;-72
2023/06/07 05:12:46;;;;;;;7.40;6.30;;;;;;;;;;4979700;28;20219;-72
2023/06/07 05:15:52;;;;;;;8.53;6.37;;;;;;;;;;4980468;28;20174;-74
2023/06/07 05:18:57;;;;;;;7.57;6.87;;;;;;;;;;4978961;28;20198;-72
2023/06/07 05:22:02;;;;;;;7.13;6.43;;;;;;;;;;4978863;28;20218;-72
2023/06/07 05:25:11;;;;;;;6.90;6.30;;;;;;;;;;4978537;28;20182;-72
2023/06/07 05:28:15;;;;;;;6.60;6.00;;;;;;;;;;4979358;28;20206;-72
2023/06/07 05:31:26;;;;;;;6.90;6.30;;;;;;;;;;4978426;28;20226;-73
2023/06/07 05:34:30;;;;;;;7.93;7.23;;;;;;;;;;4967022;28;20183;-71
2023/06/07 05:37:34;;;;;;;6.90;6.30;;;;;;;;;;4998145;28;20194;-73
2023/06/07 05:40:38;;;;;;;7.10;6.40;;;;;;;;;;4985774;28;20182;-72
2023/06/07 05:43:42;;;;;;;6.00;5.50;;;;;;;;;;4985558;28;20206;-73
2023/06/07 05:46:46;;;;;;;8.03;6.80;;;;;;;;;;4963669;28;20210;-73
2023/06/07 05:49:52;;;;;;;7.93;7.13;;;;;;;;;;5008125;23;20581;-86
2023/06/07 05:52:57;;;;;;;8.77;7.77;;;;;;;;;;4963008;28;20517;-87
2023/06/07 05:56:02;;;;;;;8.50;7.50;;;;;;;;;;4983800;28;20178;-86
2023/06/07 05:59:07;;;;;;;12.27;9.00;;;;;;;;;;4959446;28;20218;-86
2023/06/07 06:02:11;;;;;;;16.43;11.60;;;;;;;;;;4943480;28;20543;-86
2023/06/07 06:05:18;;;;;;;19.70;12.53;;;;;;;;;;4965370;28;20206;-86
2023/06/07 06:08:22;;;;;;;18.70;12.70;;;;;;;;;;4965116;28;20705;-86
2023/06/07 06:11:27;;;;;;;16.10;12.60;;;;;;;;;;4954060;28;20185;-86
2023/06/07 06:14:36;;;;;;;15.77;12.73;;;;;;;;;;4954027;28;20186;-88
2023/06/07 06:17:40;;;;;;;17.00;13.23;;;;;;;;;;4943042;28;20263;-87
2023/06/07 06:20:46;;;;;;;21.87;15.40;;;;;;;;;;4953942;28;20225;-86
2023/06/07 06:23:50;;;;;;;22.80;16.07;;;;;;;;;;4953917;28;20182;-87
2023/06/07 06:26:54;;;;;;;22.70;17.20;;;;;;;;;;4953543;28;20205;-86
2023/06/07 06:29:58;;;;;;;26.37;18.57;;;;;;;;;;4953584;28;20226;-86
2023/06/07 06:33:03;;;;;;;24.90;19.07;;;;;;;;;;4953854;28;20230;-86
2023/06/07 06:36:07;;;;;;;27.87;21.47;;;;;;;;;;4942954;28;20187;-87
2023/06/07 06:39:11;;;;;;;25.27;20.37;;;;;;;;;;4953886;28;20226;-87
2023/06/07 06:42:15;;;;;;;26.00;21.37;;;;;;;;;;4953643;28;20190;-86
2023/06/07 06:45:38;;;;;;;26.97;21.50;;;;;;;;;;4955958;28;20186;-86
2023/06/07 06:48:44;;;;;;;30.03;23.20;;;;;;;;;;4964576;28;20234;-86
2023/06/07 06:51:51;;;;;;;29.27;22.97;;;;;;;;;;4932152;28;20186;-86
2023/06/07 06:54:56;;;;;;;28.23;22.23;;;;;;;;;;4942386;28;20749;-87
2023/06/07 06:58:00;;;;;;;32.07;23.53;;;;;;;;;;4942290;28;20206;-87
2023/06/07 07:01:05;;;;;;;28.67;22.90;;;;;;;;;;4953336;28;20230;-87
2023/06/07 07:04:09;;;;;;;32.03;22.07;;;;;;;;;;4964393;28;20581;-87
2023/06/07 07:07:13;;;;;;;23.63;18.33;;;;;;;;;;4953309;28;20693;-87
2023/06/07 07:10:18;;;;;;;21.87;15.20;;;;;;;;;;4953051;28;20217;-87
2023/06/07 07:13:22;;;;;;;22.50;16.07;;;;;;;;;;4942191;28;20206;-86
2023/06/07 07:16:27;;;;;;;19.37;14.97;;;;;;;;;;4964321;28;20190;-86
2023/06/07 07:19:31;;;;;;;18.70;14.03;;;;;;;;;;4952832;28;20225;-87
2023/06/07 07:22:35;;;;;;;21.60;15.17;;;;;;;;;;4964067;28;20194;-86
2023/06/07 07:25:40;;;;;;;32.40;16.03;;;;;;;;;;4952825;28;20197;-87
2023/06/07 07:28:44;;;;;;;32.60;16.13;;;;;;;;;;4952928;28;20218;-86
2023/06/07 07:31:51;;;;;;;18.93;14.87;;;;;;;;;;4952842;28;20186;-87
2023/06/07 07:34:55;;;;;;;18.27;13.87;;;;;;;;;;4941874;28;20558;-87
2023/06/07 07:38:00;;;;;;;18.03;12.90;;;;;;;;;;4941886;28;20182;-87
2023/06/07 07:41:05;;;;;;;17.50;13.77;;;;;;;;;;4963515;28;20218;-87
2023/06/07 07:44:09;;;;;;;20.93;14.37;;;;;;;;;;4952460;28;20193;-87
2023/06/07 07:47:13;;;;;;;16.10;12.17;;;;;;;;;;4952578;28;20255;-87
2023/06/07 07:50:17;;;;;;;23.13;13.70;;;;;;;;;;4952308;28;20320;-87
2023/06/07 07:53:21;;;;;;;18.30;13.87;;;;;;;;;;4952404;28;20186;-87
2023/06/07 07:56:26;;;;;;;18.87;12.87;;;;;;;;;;4952278;28;20209;-87
2023/06/07 07:59:30;;;;;;;22.10;14.03;;;;;;;;;;4941696;28;20217;-88
2023/06/07 08:02:34;;;;;;;18.00;13.90;;;;;;;;;;4952402;28;20181;-88
2023/06/07 08:05:38;;;;;;;17.00;13.67;;;;;;;;;;4952273;28;20537;-87
2023/06/07 08:08:46;;;;;;;17.93;14.73;;;;;;;;;;4952414;28;20217;-87
2023/06/07 08:11:50;;;;;;;17.03;13.93;;;;;;;;;;4952100;28;20190;-88
2023/06/07 08:14:54;;;;;;;16.73;13.17;;;;;;;;;;4963583;28;20205;-88
2023/06/07 08:17:58;;;;;;;18.60;13.53;;;;;;;;;;4952098;28;20546;-87
2023/06/07 08:21:03;;;;;;;16.20;13.23;;;;;;;;;;4951705;28;20586;-88
2023/06/07 08:24:07;;;;;;;16.93;13.10;;;;;;;;;;4952007;28;20194;-88
2023/06/07 08:27:11;;;;;;;18.00;14.10;;;;;;;;;;4963185;28;20190;-88
2023/06/07 08:30:16;;;;;;;18.87;14.17;;;;;;;;;;4940941;28;20219;-88
2023/06/07 08:33:20;;;;;;;13.77;12.03;;;;;;;;;;4952076;28;20183;-88
2023/06/07 08:36:25;;;;;;;16.73;12.70;;;;;;;;;;4952280;28;20662;-88
2023/06/07 08:39:29;;;;;;;15.53;13.17;;;;;;;;;;4940996;28;20219;-88
2023/06/07 08:42:33;;;;;;;17.97;15.60;;;;;;;;;;4963403;28;20556;-88
2023/06/07 08:45:38;;;;;;;15.87;13.00;;;;;;;;;;4962878;28;20686;-88
2023/06/07 08:48:43;;;;;;;13.47;11.17;;;;;;;;;;4951877;28;20310;-88
2023/06/07 08:51:48;;;;;;;15.25;12.05;;;;;;;;;;4963074;28;20204;-88
2023/06/07 08:54:58;;;;;;;16.38;12.70;;;;;;;;;;4940971;28;20217;-88
2023/06/07 08:58:03;;;;;;;21.30;11.30;;;;;;;;;;4962225;28;20202;-88
2023/06/07 09:01:08;;;;;;;14.85;11.23;;;;;;;;;;4951550;28;20228;-88
2023/06/07 09:04:12;;;;;;;13.95;11.77;;;;;;;;;;4951654;28;20196;-88
2023/06/07 09:07:17;;;;;;;12.80;9.75;;;;;;;;;;4951469;28;20192;-88
2023/06/07 09:10:25;;;;;;;13.93;11.60;;;;;;;;;;4951689;28;20216;-88
2023/06/07 09:13:29;;;;;;;12.55;11.20;;;;;;;;;;4951259;28;20562;-88
2023/06/07 09:16:52;;;;;;;12.88;11.55;;;;;;;;;;4940997;28;20188;-88
2023/06/07 09:19:56;;;;;;;12.43;11.18;;;;;;;;;;4951581;28;20225;-88
2023/06/07 09:23:08;;;;;;;12.93;11.63;;;;;;;;;;4951397;28;20185;-88
2023/06/07 09:26:14;;;;;;;13.20;10.77;;;;;;;;;;4962139;28;20228;-88
2023/06/07 09:29:18;;;;;;;12.70;11.10;;;;;;;;;;4951558;28;20593;-88
2023/06/07 09:32:25;;;;;;;10.27;9.13;;;;;;;;;;4954198;28;20211;-88
2023/06/07 09:35:30;;;;;;;35.70;9.60;;;;;;;;;;4965629;28;20178;-88
2023/06/07 09:38:37;;;;;;;8.93;8.02;;;;;;;;;;4961788;28;20206;-88
2023/06/07 09:41:41;;;;;;;7.10;6.40;;;;;;;;;;4965491;28;20205;-88
2023/06/07 09:44:45;;;;;;;7.72;6.80;;;;;;;;;;4954942;28;20669;-88
2023/06/07 09:48:01;;;;;;;7.00;6.30;;;;;;;;;;4952123;28;20208;-88
2023/06/07 09:51:06;;;;;;;6.53;5.82;;;;;;;;;;4965785;28;20227;-88
2023/06/07 09:54:10;;;;;;;5.85;5.25;;;;;;;;;;4954761;28;20534;-87
2023/06/07 09:57:23;;;;;;;7.97;7.18;;;;;;;;;;4944105;28;20194;-90
2023/06/07 10:00:28;;;;;;;7.07;6.38;;;;;;;;;;4954722;28;20222;-90
2023/06/07 10:03:33;;;;;;;6.78;6.05;;;;;;;;;;4954760;28;20183;-90
2023/06/07 10:06:40;;;;;;;10.00;6.00;;;;;;;;;;4955158;28;20650;-90
2023/06/07 10:09:47;;;;;;;7.50;5.90;;;;;;;;;;4953702;28;20222;-90
2023/06/07 10:12:52;;;;;;;9.57;5.95;;;;;;;;;;4954188;28;20198;-90
2023/06/07 10:15:57;;;;;;;5.93;5.40;;;;;;;;;;4956947;28;20195;-90
2023/06/07 10:19:08;;;;;;;6.35;5.60;;;;;;;;;;4956093;28;20207;-84
2023/06/07 10:22:15;;;;;;;6.47;5.80;;;;;;;;;;4968872;28;20180;-84
2023/06/07 10:25:22;;;;;;;8.10;5.90;;;;;;;;;;4969467;28;20179;-85
2023/06/07 10:28:39;;;;;;;7.53;5.90;;;;;;;;;;4957464;28;20179;-85
2023/06/07 10:31:59;;;;;;;6.03;5.25;;;;;;;;;;4958235;28;20184;-85
2023/06/07 10:35:03;;;;;;;6.10;5.50;;;;;;;;;;4955606;28;20662;-85
2023/06/07 10:38:08;;;;;;;5.93;5.25;;;;;;;;;;4968690;28;20203;-85
2023/06/07 10:41:13;;;;;;;7.05;5.80;;;;;;;;;;4957683;28;20195;-84
2023/06/07 10:44:17;;;;;;;13.38;5.20;;;;;;;;;;4956725;28;20183;-85
2023/06/07 10:47:22;;;;;;;5.45;4.95;;;;;;;;;;4957059;28;20187;-85
2023/06/07 10:50:26;;;;;;;7.70;5.00;;;;;;;;;;4954057;28;20690;-85
2023/06/07 10:53:56;;;;;;;6.75;4.90;;;;;;;;;;4978937;28;20179;-85
2023/06/07 10:57:02;;;;;;;5.45;4.90;;;;;;;;;;4977872;28;20626;-84
2023/06/07 11:00:28;;;;;;;4.50;4.10;;;;;;;;;;4954143;28;20226;-83
2023/06/07 11:03:33;;;;;;;8.38;4.93;;;;;;;;;;4977217;28;20187;-83
2023/06/07 11:07:18;;;;;;;5.78;5.10;;;;;;;;;;4953475;28;20182;-85
2023/06/07 11:10:22;;;;;;;5.63;4.97;;;;;;;;;;4965144;28;20215;-84
2023/06/07 11:13:47;;;;;;;4.80;4.30;;;;;;;;;;4965615;28;20543;-84
2023/06/07 11:16:51;;;;;;;4.78;4.28;;;;;;;;;;4942563;28;20184;-84
2023/06/07 11:19:57;;;;;;;6.70;4.10;;;;;;;;;;4964486;28;20230;-85
2023/06/07 11:23:21;;;;;;;6.28;4.13;;;;;;;;;;4953273;28;20183;-85
2023/06/07 11:26:26;;;;;;;6.25;4.50;;;;;;;;;;4964972;28;20187;-85
2023/06/07 11:29:30;;;;;;;4.70;4.10;;;;;;;;;;4963579;28;20223;-85
2023/06/07 11:32:37;;;;;;;4.20;3.80;;;;;;;;;;4964141;28;20187;-85
2023/06/07 11:35:42;;;;;;;4.93;4.13;;;;;;;;;;4964051;28;20646;-85
2023/06/07 11:38:49;;;;;;;7.70;3.90;;;;;;;;;;4952055;28;20684;-84
2023/06/07 11:41:53;;;;;;;5.97;3.80;;;;;;;;;;4966662;28;20187;-85
2023/06/07 11:44:59;;;;;;;4.25;3.78;;;;;;;;;;4955105;28;20176;-85
2023/06/07 11:48:05;;;;;;;5.05;4.03;;;;;;;;;;4954988;28;20187;-85
2023/06/07 11:51:09;;;;;;;4.53;3.92;;;;;;;;;;4946387;23;1157760;-82
2023/06/07 11:54:13;;;;;;;4.55;3.85;;;;;;;;;;4974239;28;20736;-82
2023/06/07 11:57:18;;;;;;;4.28;3.88;;;;;;;;;;4974034;28;20206;-83
2023/06/07 12:00:23;;;;;;;4.80;3.55;;;;;;;;;;4973611;28;20568;-83
2023/06/07 12:03:27;;;;;;;3.58;3.28;;;;;;;;;;4963655;28;20183;-83
2023/06/07 12:06:33;;;;;;;3.90;3.50;;;;;;;;;;4974692;28;20178;-82
2023/06/07 12:09:40;;;;;;;5.20;3.53;;;;;;;;;;4967059;28;20183;-81
2023/06/07 12:12:44;;;;;;;4.45;3.90;;;;;;;;;;4986976;28;20606;-82
2023/06/07 12:15:58;;;;;;;6.10;3.90;;;;;;;;;;4974717;28;20218;-82
2023/06/07 12:19:07;;;;;;;6.30;3.53;;;;;;;;;;4973901;28;20218;-83
2023/06/07 12:22:11;;;;;;;4.75;4.07;;;;;;;;;;4972792;28;20213;-83
2023/06/07 12:25:16;;;;;;;4.10;3.70;;;;;;;;;;4962126;28;20535;-83
2023/06/07 12:28:21;;;;;;;4.10;3.70;;;;;;;;;;4962561;28;20676;-83
2023/06/07 12:31:26;;;;;;;4.15;3.53;;;;;;;;;;4973035;28;20214;-83
2023/06/07 12:34:30;;;;;;;4.10;3.80;;;;;;;;;;4996696;28;20183;-83
2023/06/07 12:37:35;;;;;;;4.90;3.75;;;;;;;;;;4983282;28;20182;-83
2023/06/07 12:40:40;;;;;;;6.63;3.92;;;;;;;;;;4972639;28;20226;-83
2023/06/07 12:43:45;;;;;;;3.97;3.58;;;;;;;;;;4962137;28;20186;-83
2023/06/07 12:46:49;;;;;;;4.43;3.47;;;;;;;;;;4995212;28;20190;-83
2023/06/07 12:49:54;;;;;;;4.10;3.50;;;;;;;;;;4971680;28;20182;-83
2023/06/07 12:52:58;;;;;;;11.57;4.07;;;;;;;;;;4983168;28;20183;-83
2023/06/07 12:56:03;;;;;;;4.18;3.78;;;;;;;;;;4971317;28;20183;-83
2023/06/07 12:59:08;;;;;;;3.70;3.40;;;;;;;;;;4960519;28;20575;-83
2023/06/07 13:02:13;;;;;;;4.70;3.67;;;;;;;;;;4972087;28;20213;-83
2023/06/07 13:05:17;;;;;;;4.20;3.47;;;;;;;;;;4972133;28;20174;-83
2023/06/07 13:08:21;;;;;;;3.83;3.53;;;;;;;;;;4964456;28;20183;-83
2023/06/07 13:11:26;;;;;;;4.38;3.50;;;;;;;;;;4974941;28;20214;-83
2023/06/07 13:14:31;;;;;;;3.80;3.50;;;;;;;;;;4975778;28;20187;-83
2023/06/07 13:17:35;;;;;;;3.97;3.58;;;;;;;;;;4977413;28;20517;-83
2023/06/07 13:20:39;;;;;;;3.95;3.63;;;;;;;;;;4964674;28;20230;-83
2023/06/07 13:23:44;;;;;;;3.95;3.40;;;;;;;;;;4975502;28;20178;-83
2023/06/07 13:26:48;;;;;;;4.20;3.80;;;;;;;;;;4986383;28;20175;-83
2023/06/07 13:29:53;;;;;;;3.67;3.33;;;;;;;;;;4963743;28;20179;-83
2023/06/07 13:32:57;;;;;;;5.90;3.28;;;;;;;;;;4975846;28;20630;-83
2023/06/07 13:36:01;;;;;;;3.80;3.40;;;;;;;;;;4986708;28;20202;-83
2023/06/07 13:39:05;;;;;;;4.00;3.60;;;;;;;;;;4975397;28;20179;-83
2023/06/07 13:42:10;;;;;;;4.13;3.47;;;;;;;;;;4974704;28;20214;-83
2023/06/07 13:45:14;;;;;;;13.23;4.18;;;;;;;;;;4974992;28;20656;-83
2023/06/07 13:48:19;;;;;;;6.40;3.50;;;;;;;;;;4974380;28;20198;-83
2023/06/07 13:51:23;;;;;;;4.43;3.33;;;;;;;;;;4974280;28;20572;-83
2023/06/07 13:54:28;;;;;;;3.40;3.10;;;;;;;;;;4982109;28;20519;-83
2023/06/07 13:57:32;;;;;;;4.90;3.53;;;;;;;;;;4963719;28;20182;-83
2023/06/07 14:00:37;;;;;;;4.20;3.45;;;;;;;;;;4964390;28;20233;-83
2023/06/07 14:03:43;;;;;;;3.75;3.45;;;;;;;;;;4964971;28;20183;-82
2023/06/07 14:06:50;;;;;;;3.22;2.90;;;;;;;;;;4975707;28;20182;-83
2023/06/07 14:09:55;;;;;;;4.47;3.50;;;;;;;;;;4976326;28;20179;-82
2023/06/07 14:12:59;;;;;;;4.13;3.35;;;;;;;;;;4964526;28;20178;-82
2023/06/07 14:16:04;;;;;;;3.88;3.50;;;;;;;;;;4963293;28;20202;-82
2023/06/07 14:19:08;;;;;;;6.30;3.50;;;;;;;;;;4975203;28;20174;-84
2023/06/07 14:22:12;;;;;;;5.43;3.50;;;;;;;;;;4965861;28;20214;-83
2023/06/07 14:25:18;;;;;;;36.15;5.43;;;;;;;;;;4976582;28;20178;-83
2023/06/07 14:28:22;;;;;;;3.80;3.40;;;;;;;;;;4965838;28;20186;-83
2023/06/07 14:31:27;;;;;;;3.90;3.40;;;;;;;;;;4976215;28;20210;-82
2023/06/07 14:34:31;;;;;;;3.63;3.33;;;;;;;;;;5000408;28;20182;-85
2023/06/07 14:37:35;;;;;;;4.45;3.33;;;;;;;;;;4941109;29;20236;-81
2023/06/07 14:40:40;;;;;;;7.00;3.65;;;;;;;;;;4952774;29;20231;-81
2023/06/07 14:43:44;;;;;;;7.05;3.50;;;;;;;;;;4975490;28;20188;-81
2023/06/07 14:46:48;;;;;;;4.95;3.80;;;;;;;;;;4974050;28;20184;-81
2023/06/07 14:49:52;;;;;;;3.70;3.40;;;;;;;;;;4963226;29;20176;-81
2023/06/07 14:52:56;;;;;;;5.88;3.75;;;;;;;;;;4962261;29;20180;-83
2023/06/07 14:56:00;;;;;;;6.07;3.70;;;;;;;;;;4959766;29;20188;-83
2023/06/07 14:59:04;;;;;;;16.15;4.18;;;;;;;;;;4956522;29;20199;-83
2023/06/07 15:02:09;;;;;;;6.10;3.65;;;;;;;;;;4966801;28;20207;-83
2023/06/07 15:05:13;;;;;;;3.97;3.30;;;;;;;;;;4967103;28;20643;-84
2023/06/07 15:08:17;;;;;;;4.00;3.60;;;;;;;;;;4966990;28;20183;-84
2023/06/07 15:11:21;;;;;;;3.92;3.55;;;;;;;;;;4955665;29;20215;-85
2023/06/07 15:14:25;;;;;;;4.10;3.70;;;;;;;;;;4966886;28;20204;-84
2023/06/07 15:17:30;;;;;;;4.10;3.70;;;;;;;;;;4966438;28;20550;-86
2023/06/07 15:20:34;;;;;;;4.03;3.10;;;;;;;;;;4966380;28;20211;-84
2023/06/07 15:23:38;;;;;;;3.90;3.60;;;;;;;;;;4966834;28;20187;-84
2023/06/07 15:26:43;;;;;;;3.72;3.38;;;;;;;;;;4945085;29;20176;-85
2023/06/07 15:29:48;;;;;;;3.60;3.17;;;;;;;;;;4955732;28;20199;-84
2023/06/07 15:32:52;;;;;;;4.72;3.55;;;;;;;;;;4956278;29;20203;-84
2023/06/07 15:35:57;;;;;;;3.42;3.13;;;;;;;;;;4956341;28;20235;-85
2023/06/07 15:39:02;;;;;;;7.03;3.45;;;;;;;;;;4945683;29;20176;-83
2023/06/07 15:42:11;;;;;;;4.65;3.63;;;;;;;;;;4955552;29;20219;-84
2023/06/07 15:45:16;;;;;;;4.82;3.47;;;;;;;;;;4933697;29;20204;-83
2023/06/07 15:48:23;;;;;;;9.55;3.72;;;;;;;;;;4966702;28;20192;-84
2023/06/07 15:51:28;;;;;;;4.30;3.67;;;;;;;;;;4954854;29;20227;-85
2023/06/07 15:54:32;;;;;;;3.97;3.22;;;;;;;;;;4965910;28;20199;-85
2023/06/07 15:57:37;;;;;;;3.92;3.53;;;;;;;;;;4966175;28;20207;-86
2023/06/07 16:00:46;;;;;;;3.95;3.17;;;;;;;;;;4956440;29;20229;-86
2023/06/07 16:03:55;;;;;;;4.10;3.70;;;;;;;;;;4969368;28;20526;-85
2023/06/07 16:07:03;;;;;;;3.60;3.25;;;;;;;;;;4946308;29;20543;-85
2023/06/07 16:10:09;;;;;;;3.55;3.25;;;;;;;;;;4968460;28;20185;-85
2023/06/07 16:13:18;;;;;;;4.00;3.30;;;;;;;;;;4957773;28;20182;-85
2023/06/07 16:16:34;;;;;;;139.60;98.72;;;;;;;;;;4957045;29;20180;-85
2023/06/07 16:19:44;;;;;;;24.38;20.67;;;;;;;;;;4946179;29;20206;-86
2023/06/07 16:22:50;;;;;;;667.33;599.45;;;;;;;;;;4944832;29;20197;-87
2023/06/07 16:25:55;;;;;;;47.30;10.07;;;;;;;;;;4954312;29;20724;-85
2023/06/07 16:28:59;;;;;;;12.25;5.95;;;;;;;;;;4943577;29;20728;-85
2023/06/07 16:32:03;;;;;;;9.13;4.05;;;;;;;;;;4942383;29;20830;-86
2023/06/07 16:35:07;;;;;;;4.72;3.58;;;;;;;;;;4932802;29;20190;-86
2023/06/07 16:38:11;;;;;;;8.07;3.80;;;;;;;;;;4941535;29;21048;-86
2023/06/07 16:41:21;;;;;;;8.27;6.13;;;;;;;;;;4932406;29;20240;-85
2023/06/07 16:44:25;;;;;;;409.17;365.98;;;;;;;;;;4958911;29;20185;-85
2023/06/07 16:47:30;;;;;;;331.15;296.15;;;;;;;;;;4947766;29;20200;-84
2023/06/07 16:50:34;;;;;;;49.78;40.40;;;;;;;;;;4948093;29;20193;-83
2023/06/07 16:53:38;;;;;;;63.83;46.97;;;;;;;;;;4969552;28;20197;-85
2023/06/07 16:56:42;;;;;;;360.58;258.58;;;;;;;;;;4950137;29;20197;-85
2023/06/07 16:59:46;;;;;;;224.23;158.40;;;;;;;;;;4959007;29;20196;-84
2023/06/07 17:02:51;;;;;;;73.43;64.65;;;;;;;;;;4946862;29;20189;-84
2023/06/07 17:05:54;;;;;;;9.18;8.27;;;;;;;;;;4968617;28;20562;-84
2023/06/07 17:08:59;;;;;;;15.57;8.60;;;;;;;;;;4957858;29;20214;-84
2023/06/07 17:12:03;;;;;;;18.20;8.32;;;;;;;;;;4942015;29;20217;-85
2023/06/07 17:15:08;;;;;;;7.55;5.28;;;;;;;;;;4947956;29;20693;-84
2023/06/07 17:18:12;;;;;;;23.70;21.30;;;;;;;;;;4935183;29;20531;-84
2023/06/07 17:21:16;;;;;;;9.90;4.00;;;;;;;;;;4946455;29;20232;-84
2023/06/07 17:24:21;;;;;;;4.30;3.63;;;;;;;;;;4947036;29;20197;-84
2023/06/07 17:27:25;;;;;;;3.40;3.10;;;;;;;;;;4981541;28;20185;-81
2023/06/07 17:30:30;;;;;;;6.35;4.00;;;;;;;;;;4956732;29;20189;-84
2023/06/07 17:33:34;;;;;;;8.10;3.97;;;;;;;;;;4958509;29;20193;-84
2023/06/07 17:36:42;;;;;;;3.70;3.17;;;;;;;;;;4947076;29;20539;-84
2023/06/07 17:39:46;;;;;;;4.55;3.45;;;;;;;;;;4947950;29;20191;-83
2023/06/07 17:42:50;;;;;;;5.38;3.28;;;;;;;;;;4956794;29;20186;-84
2023/06/07 17:45:55;;;;;;;7.40;3.20;;;;;;;;;;4947185;29;20186;-84
2023/06/07 17:48:59;;;;;;;4.25;3.28;;;;;;;;;;4958171;29;20535;-84
2023/06/07 17:52:04;;;;;;;4.32;3.30;;;;;;;;;;4949336;28;20232;-83
2023/06/07 17:55:09;;;;;;;4.30;3.67;;;;;;;;;;4947928;29;20537;-85
2023/06/07 17:58:13;;;;;;;5.57;3.13;;;;;;;;;;4935285;29;20187;-84
2023/06/07 18:01:17;;;;;;;4.30;3.30;;;;;;;;;;4947745;29;20710;-84
2023/06/07 18:04:21;;;;;;;3.93;3.27;;;;;;;;;;4948015;29;20185;-84
2023/06/07 18:07:26;;;;;;;3.87;3.37;;;;;;;;;;4961568;23;20589;-72
2023/06/07 18:10:29;;;;;;;3.33;3.00;;;;;;;;;;4958007;29;20181;-72
2023/06/07 18:13:34;;;;;;;3.47;3.03;;;;;;;;;;4956945;29;20511;-71
2023/06/07 18:16:39;;;;;;;4.70;3.27;;;;;;;;;;4957714;29;20180;-71
2023/06/07 18:19:44;;;;;;;3.43;3.00;;;;;;;;;;4957410;29;20205;-72
2023/06/07 18:22:49;;;;;;;4.73;3.47;;;;;;;;;;4956953;29;20212;-72
2023/06/07 18:25:53;;;;;;;4.53;3.20;;;;;;;;;;4957542;29;20199;-72